Time;durP1;ratioP1;P1;durP2;ratioP2;P2;SDS_P1;SDS_P2;PMS_P1;PMS_P2;Temp;Humidity;BMP_temperature;BMP_pressure;BME280_temperature;BME280_humidity;BME280_pressure;Samples;Min_cycle;Max_cycle;Signal;HPM_P1;HPM_P2
2022/07/08 00:02:22;;;;;;;0.40;0.40;;;24.30;52.90;;;;;;6280911;28;20925;-44
2022/07/08 00:05:24;;;;;;;0.32;0.32;;;24.10;52.80;;;;;;6288129;28;20024;-42
2022/07/08 00:08:27;;;;;;;0.35;0.30;;;24.10;52.80;;;;;;6284838;28;20048;-43
2022/07/08 00:11:29;;;;;;;0.38;0.30;;;24.10;52.80;;;;;;6293654;28;20128;-43
2022/07/08 00:14:38;;;;;;;0.50;0.30;;;24.10;52.80;;;;;;6300062;28;20040;-46
2022/07/08 00:17:41;;;;;;;0.40;0.40;;;24.00;52.80;;;;;;6278236;28;20125;-44
2022/07/08 00:20:42;;;;;;;0.30;0.30;;;24.00;52.80;;;;;;6295990;28;20966;-44
2022/07/08 00:23:52;;;;;;;0.30;0.25;;;24.00;52.70;;;;;;6295476;28;20039;-46
2022/07/08 00:26:53;;;;;;;0.30;0.30;;;24.00;52.70;;;;;;6280105;28;20150;-41
2022/07/08 00:30:04;;;;;;;0.40;0.30;;;24.00;52.70;;;;;;6284224;28;20047;-44
2022/07/08 00:33:06;;;;;;;0.40;0.40;;;24.00;52.70;;;;;;6274528;28;20048;-42
2022/07/08 00:36:08;;;;;;;0.30;0.30;;;24.00;52.70;;;;;;6256693;28;20062;-45
2022/07/08 00:39:09;;;;;;;0.60;0.20;;;23.90;52.60;;;;;;6281169;28;20047;-41
2022/07/08 00:42:11;;;;;;;0.55;0.30;;;24.00;52.60;;;;;;6283535;28;20046;-42
2022/07/08 00:45:20;;;;;;;0.32;0.30;;;24.00;52.70;;;;;;6266137;28;20519;-41
2022/07/08 00:48:23;;;;;;;0.30;0.30;;;24.00;52.70;;;;;;6285866;28;20205;-42
2022/07/08 00:51:26;;;;;;;0.40;0.30;;;23.90;52.60;;;;;;6281138;28;20116;-45
2022/07/08 00:54:37;;;;;;;0.68;0.30;;;23.90;52.70;;;;;;6283328;28;20980;-43
2022/07/08 00:57:40;;;;;;;0.30;0.30;;;24.00;53.30;;;;;;6284947;28;20140;-41
2022/07/08 01:00:50;;;;;;;0.25;0.25;;;23.90;52.70;;;;;;6285534;28;20062;-41
2022/07/08 01:03:53;;;;;;;0.35;0.28;;;23.90;52.70;;;;;;6266454;28;20051;-44
2022/07/08 01:06:55;;;;;;;0.35;0.20;;;23.90;52.70;;;;;;6289523;28;20055;-45
2022/07/08 01:09:58;;;;;;;0.30;0.30;;;23.90;52.70;;;;;;6283797;28;20036;-41
2022/07/08 01:12:59;;;;;;;0.40;0.40;;;23.90;52.70;;;;;;6284994;28;20047;-45
2022/07/08 01:16:08;;;;;;;0.30;0.30;;;23.90;52.70;;;;;;6286289;28;20036;-44
2022/07/08 01:19:10;;;;;;;0.38;0.30;;;23.90;52.80;;;;;;6270065;28;20043;-44
2022/07/08 01:22:12;;;;;;;0.43;0.40;;;23.80;52.70;;;;;;6285010;28;20036;-42
2022/07/08 01:25:21;;;;;;;0.30;0.30;;;23.80;52.70;;;;;;6285367;28;20047;-41
2022/07/08 01:28:23;;;;;;;0.30;0.30;;;23.80;52.80;;;;;;6285958;28;20039;-43
2022/07/08 01:31:32;;;;;;;0.30;0.30;;;23.80;52.80;;;;;;6279120;28;20039;-42
2022/07/08 01:34:34;;;;;;;0.30;0.22;;;23.80;52.80;;;;;;6295808;28;20050;-44
2022/07/08 01:37:37;;;;;;;0.50;0.30;;;23.90;52.80;;;;;;6300042;28;20060;-42
2022/07/08 01:40:38;;;;;;;0.40;0.40;;;23.80;52.80;;;;;;6296639;28;20043;-43
2022/07/08 01:43:40;;;;;;;0.40;0.40;;;23.80;52.80;;;;;;6293840;28;20054;-41
2022/07/08 01:46:49;;;;;;;0.30;0.30;;;23.70;52.80;;;;;;6290645;28;20047;-43
2022/07/08 01:49:51;;;;;;;0.30;0.30;;;23.70;52.80;;;;;;6293285;28;20055;-42
2022/07/08 01:52:53;;;;;;;0.30;0.30;;;23.80;52.90;;;;;;6296421;28;20151;-41
2022/07/08 01:56:03;;;;;;;0.52;0.30;;;23.70;52.80;;;;;;6293944;28;20742;-43
2022/07/08 01:59:04;;;;;;;0.30;0.25;;;23.80;52.80;;;;;;6290279;28;20036;-44
2022/07/08 02:02:16;;;;;;;0.20;0.20;;;23.80;52.80;;;;;;6289830;28;20050;-41
2022/07/08 02:05:18;;;;;;;0.20;0.20;;;23.70;52.70;;;;;;6268732;28;20257;-42
2022/07/08 02:08:23;;;;;;;0.40;0.28;;;23.80;52.70;;;;;;6273610;28;20128;-46
2022/07/08 02:14:41;;;;;;;0.38;0.28;;;23.80;52.60;;;;;;6292425;28;20055;-44
2022/07/08 02:20:52;;;;;;;0.60;0.30;;;23.80;52.60;;;;;;6272888;28;20864;-44
2022/07/08 02:23:54;;;;;;;0.55;0.30;;;23.80;52.50;;;;;;6299667;28;20052;-41
2022/07/08 02:27:05;;;;;;;0.30;0.30;;;23.80;52.50;;;;;;6282127;28;20040;-41
2022/07/08 02:30:08;;;;;;;0.40;0.38;;;23.80;52.50;;;;;;6258539;28;20048;-41
2022/07/08 02:33:17;;;;;;;0.40;0.38;;;23.80;52.40;;;;;;6270957;28;20044;-43
2022/07/08 02:36:19;;;;;;;0.32;0.30;;;23.80;52.40;;;;;;6280085;28;20040;-45
2022/07/08 02:39:21;;;;;;;0.30;0.30;;;23.80;52.40;;;;;;6271898;28;20076;-42
2022/07/08 02:42:24;;;;;;;0.32;0.30;;;23.70;52.30;;;;;;6274389;28;20041;-44
2022/07/08 02:45:25;;;;;;;0.38;0.30;;;23.80;52.40;;;;;;6272485;28;20086;-43
2022/07/08 02:48:35;;;;;;;0.40;0.40;;;23.80;52.30;;;;;;6291836;28;20078;-42
2022/07/08 02:51:37;;;;;;;0.28;0.20;;;23.80;52.30;;;;;;6279575;28;20044;-41
2022/07/08 02:54:39;;;;;;;0.30;0.30;;;23.70;52.20;;;;;;6246782;28;20166;-45
2022/07/08 02:57:49;;;;;;;0.50;0.40;;;23.80;52.30;;;;;;6272623;28;20039;-44
2022/07/08 03:00:50;;;;;;;0.30;0.30;;;23.80;52.20;;;;;;6278662;28;20339;-43
2022/07/08 03:04:00;;;;;;;0.30;0.30;;;23.70;52.20;;;;;;6279495;28;20073;-43
2022/07/08 03:07:01;;;;;;;1.17;0.50;;;23.80;52.30;;;;;;6282243;28;20220;-41
2022/07/08 03:10:04;;;;;;;0.40;0.25;;;23.80;52.20;;;;;;6283706;28;20051;-47
2022/07/08 03:13:06;;;;;;;0.40;0.30;;;23.80;52.20;;;;;;6278696;28;20111;-41
2022/07/08 03:16:07;;;;;;;0.80;0.40;;;23.80;52.10;;;;;;6283341;28;20052;-42
2022/07/08 03:19:17;;;;;;;0.20;0.20;;;23.80;52.20;;;;;;6283533;28;20040;-45
2022/07/08 03:22:19;;;;;;;0.50;0.43;;;23.60;52.00;;;;;;6282886;28;20055;-43
2022/07/08 03:25:21;;;;;;;0.30;0.30;;;23.80;52.10;;;;;;6261747;28;20447;-44
2022/07/08 03:28:30;;;;;;;0.50;0.30;;;23.70;52.00;;;;;;6266436;28;20083;-46
2022/07/08 03:31:33;;;;;;;0.60;0.40;;;23.70;52.00;;;;;;6271951;28;20559;-44
2022/07/08 03:34:43;;;;;;;0.38;0.25;;;23.70;52.00;;;;;;6285976;28;20043;-46
2022/07/08 03:37:45;;;;;;;0.22;0.22;;;23.80;52.00;;;;;;6288957;28;20043;-41
2022/07/08 03:44:03;;;;;;;0.70;0.30;;;23.80;52.10;;;;;;6281844;28;20146;-44
2022/07/08 03:47:05;;;;;;;1.88;0.50;;;23.70;52.00;;;;;;6288227;28;20532;-43
2022/07/08 03:50:16;;;;;;;0.43;0.30;;;23.70;52.10;;;;;;6282090;28;20039;-44
2022/07/08 03:53:17;;;;;;;0.47;0.40;;;23.70;52.00;;;;;;6277513;28;20094;-47
2022/07/08 03:56:19;;;;;;;0.85;0.50;;;23.60;51.90;;;;;;6279644;28;20337;-45
2022/07/08 03:59:29;;;;;;;0.75;0.50;;;23.80;52.00;;;;;;6284221;28;20268;-45
2022/07/08 04:02:31;;;;;;;0.45;0.40;;;23.60;51.90;;;;;;6285480;28;20039;-45
2022/07/08 04:05:40;;;;;;;0.70;0.38;;;23.70;51.90;;;;;;6281554;28;20055;-44
2022/07/08 04:08:42;;;;;;;0.30;0.30;;;23.70;51.90;;;;;;6273443;28;20275;-45
2022/07/08 04:11:45;;;;;;;0.50;0.30;;;23.70;51.90;;;;;;6249688;28;20361;-42
2022/07/08 04:14:46;;;;;;;0.47;0.45;;;23.70;51.80;;;;;;6264706;28;20630;-43
2022/07/08 04:17:48;;;;;;;0.40;0.32;;;23.70;51.80;;;;;;6266951;28;20732;-45
2022/07/08 04:20:58;;;;;;;0.30;0.30;;;23.70;51.80;;;;;;6262678;28;20061;-44
2022/07/08 04:24:00;;;;;;;0.55;0.50;;;23.80;51.80;;;;;;6261097;28;20036;-42
2022/07/08 04:27:02;;;;;;;0.38;0.38;;;23.70;51.80;;;;;;6260805;28;20166;-41
2022/07/08 04:30:12;;;;;;;0.35;0.35;;;23.70;51.70;;;;;;6260226;28;20047;-42
2022/07/08 04:33:14;;;;;;;0.32;0.30;;;23.70;51.80;;;;;;6259529;28;20039;-41
2022/07/08 04:36:24;;;;;;;0.40;0.40;;;23.60;51.60;;;;;;6237945;28;20366;-44
2022/07/08 04:39:26;;;;;;;0.35;0.30;;;23.60;51.60;;;;;;6259892;28;20300;-42
2022/07/08 04:42:28;;;;;;;0.60;0.50;;;23.70;51.70;;;;;;6256121;28;20113;-46
2022/07/08 04:45:29;;;;;;;0.40;0.40;;;23.70;51.70;;;;;;6258707;28;20051;-43
2022/07/08 04:48:31;;;;;;;0.60;0.40;;;23.60;51.60;;;;;;6262877;28;20458;-44
2022/07/08 04:51:41;;;;;;;0.40;0.40;;;23.60;51.60;;;;;;6266475;28;20116;-46
2022/07/08 04:54:43;;;;;;;0.50;0.40;;;23.50;51.50;;;;;;6268266;28;20436;-44
2022/07/08 04:57:45;;;;;;;0.85;0.45;;;23.70;51.60;;;;;;6276379;28;20047;-43
2022/07/08 05:00:54;;;;;;;0.30;0.30;;;23.60;51.50;;;;;;6279169;28;20536;-44
2022/07/08 05:03:56;;;;;;;0.47;0.40;;;23.60;51.50;;;;;;6270547;28;20584;-44
2022/07/08 05:07:05;;;;;;;0.50;0.40;;;23.60;51.50;;;;;;6275008;28;20151;-45
2022/07/08 05:10:07;;;;;;;0.38;0.30;;;23.60;51.50;;;;;;6280137;28;20048;-43
2022/07/08 05:13:09;;;;;;;1.15;0.40;;;23.60;51.40;;;;;;6279971;28;20048;-43
2022/07/08 05:16:11;;;;;;;0.28;0.28;;;23.60;51.50;;;;;;6278467;28;20122;-43
2022/07/08 05:19:12;;;;;;;0.93;0.50;;;23.60;51.50;;;;;;6281076;28;20078;-44
2022/07/08 05:22:22;;;;;;;0.60;0.50;;;23.60;51.50;;;;;;6279653;28;20036;-41
2022/07/08 05:25:24;;;;;;;0.75;0.70;;;23.60;51.40;;;;;;6282226;28;20051;-46
2022/07/08 05:28:26;;;;;;;0.47;0.45;;;23.60;51.40;;;;;;6276951;28;20872;-40
2022/07/08 05:31:36;;;;;;;0.40;0.40;;;23.60;51.50;;;;;;6286174;28;20032;-43
2022/07/08 05:34:41;;;;;;;1.00;0.52;;;23.60;51.50;;;;;;6265369;28;20903;-45
2022/07/08 05:37:51;;;;;;;0.30;0.30;;;23.60;51.50;;;;;;6286054;28;20043;-43
2022/07/08 05:40:53;;;;;;;0.50;0.30;;;23.80;51.60;;;;;;6285217;28;20040;-41
2022/07/08 05:43:55;;;;;;;0.75;0.50;;;23.60;51.50;;;;;;6270178;28;20197;-42
2022/07/08 05:46:56;;;;;;;0.40;0.40;;;23.60;51.60;;;;;;6259596;28;20858;-45
2022/07/08 05:49:58;;;;;;;0.60;0.45;;;23.60;51.50;;;;;;6254815;28;20201;-43
2022/07/08 05:53:08;;;;;;;0.55;0.40;;;23.60;51.60;;;;;;6253184;28;21292;-44
2022/07/08 05:56:09;;;;;;;0.43;0.30;;;23.60;51.60;;;;;;6257847;28;20617;-43
2022/07/08 05:59:12;;;;;;;0.38;0.38;;;23.60;51.60;;;;;;6255599;28;20296;-45
2022/07/08 06:02:28;;;;;;;0.52;0.30;;;23.70;51.60;;;;;;6257890;28;20384;-45
2022/07/08 06:05:30;;;;;;;0.93;0.40;;;23.50;51.50;;;;;;6254187;28;20212;-43
2022/07/08 06:08:31;;;;;;;0.50;0.32;;;23.50;51.60;;;;;;6251406;28;20667;-42
2022/07/08 06:11:34;;;;;;;0.40;0.40;;;23.60;51.60;;;;;;6270134;28;20166;-41
2022/07/08 06:14:41;;;;;;;0.50;0.20;;;23.70;51.70;;;;;;6272463;28;20063;-43
2022/07/08 06:17:42;;;;;;;0.63;0.40;;;23.60;51.70;;;;;;6252174;28;20048;-41
2022/07/08 06:20:44;;;;;;;0.52;0.40;;;23.70;51.80;;;;;;6266530;28;20111;-45
2022/07/08 06:23:53;;;;;;;0.80;0.40;;;23.50;51.70;;;;;;6263837;28;20058;-41
2022/07/08 06:26:55;;;;;;;0.70;0.50;;;23.70;51.90;;;;;;6263655;28;20075;-44
2022/07/08 06:29:57;;;;;;;0.55;0.40;;;23.70;51.90;;;;;;6243389;28;20098;-41
2022/07/08 06:33:15;;;;;;;1.63;0.40;;;23.70;51.90;;;;;;6252589;28;20047;-41
2022/07/08 06:36:16;;;;;;;1.60;0.50;;;23.80;52.10;;;;;;6241552;28;20081;-41
2022/07/08 06:39:18;;;;;;;2.25;0.32;;;23.70;52.00;;;;;;6228212;28;21102;-43
2022/07/08 06:42:20;;;;;;;2.15;0.80;;;23.60;52.00;;;;;;6241819;28;20083;-41
2022/07/08 06:45:26;;;;;;;4.85;1.15;;;23.70;52.20;;;;;;6230755;28;20052;-41
2022/07/08 06:48:27;;;;;;;1.33;0.77;;;23.70;52.40;;;;;;6237508;28;20042;-43
2022/07/08 06:51:29;;;;;;;3.20;1.00;;;23.60;52.50;;;;;;6231063;28;20047;-45
2022/07/08 06:57:46;;;;;;;3.45;1.30;;;23.60;52.70;;;;;;6195277;28;20129;-40
2022/07/08 07:00:48;;;;;;;2.65;1.02;;;23.60;53.00;;;;;;6206217;28;20163;-43
2022/07/08 07:04:05;;;;;;;3.85;1.13;;;23.50;53.00;;;;;;6174043;28;20216;-44
2022/07/08 07:07:07;;;;;;;4.25;1.45;;;23.50;53.10;;;;;;6180986;28;20151;-50
2022/07/08 07:10:09;;;;;;;2.13;1.00;;;23.50;53.10;;;;;;6174189;28;20058;-45
2022/07/08 07:13:11;;;;;;;3.67;1.33;;;23.60;53.30;;;;;;6141434;28;20178;-44
2022/07/08 07:16:21;;;;;;;2.90;1.35;;;23.40;53.20;;;;;;6151351;28;20051;-43
2022/07/08 07:19:22;;;;;;;3.25;1.38;;;23.60;53.40;;;;;;6167584;28;20051;-46
2022/07/08 07:22:24;;;;;;;2.20;0.93;;;23.60;53.30;;;;;;6201094;28;22326;-46
2022/07/08 07:25:32;;;;;;;1.77;1.05;;;23.60;53.40;;;;;;6190307;28;20055;-46
2022/07/08 07:28:34;;;;;;;2.35;0.60;;;23.60;53.30;;;;;;6176448;28;21095;-43
2022/07/08 07:31:37;;;;;;;0.90;0.45;;;23.60;53.20;;;;;;6139764;28;22918;-44
2022/07/08 07:34:46;;;;;;;2.42;0.70;;;23.60;53.80;;;;;;6153535;28;22476;-43
2022/07/08 07:37:48;;;;;;;1.65;0.77;;;23.10;52.80;;;;;;6163271;28;21162;-45
2022/07/08 07:40:56;;;;;;;0.93;0.60;;;23.60;53.00;;;;;;6167222;28;20040;-49
2022/07/08 07:43:57;;;;;;;2.05;0.60;;;23.70;53.00;;;;;;6166989;28;20053;-43
2022/07/08 07:46:59;;;;;;;0.90;0.57;;;23.70;52.90;;;;;;6164396;28;20139;-45
2022/07/08 07:50:01;;;;;;;0.70;0.50;;;23.70;52.90;;;;;;6170103;28;20045;-43
2022/07/08 07:53:03;;;;;;;2.72;0.73;;;23.80;52.90;;;;;;6163665;28;20052;-44
2022/07/08 07:59:13;;;;;;;2.42;0.80;;;23.70;52.60;;;;;;6161495;28;21421;-43
2022/07/08 08:02:15;;;;;;;3.10;0.82;;;23.70;52.50;;;;;;6148251;28;20243;-44
2022/07/08 08:05:23;;;;;;;2.38;1.02;;;23.60;52.40;;;;;;6152499;28;20072;-45
2022/07/08 08:08:25;;;;;;;3.67;0.90;;;23.60;52.40;;;;;;6147775;28;20040;-44
2022/07/08 08:11:35;;;;;;;3.42;1.08;;;23.60;52.40;;;;;;6158280;28;22105;-45
2022/07/08 08:14:36;;;;;;;4.28;0.80;;;23.50;51.90;;;;;;6179861;28;20236;-44
2022/07/08 08:17:39;;;;;;;1.75;0.80;;;23.40;51.90;;;;;;6185681;28;20032;-45
2022/07/08 08:20:42;;;;;;;2.90;0.70;;;23.50;52.20;;;;;;6169552;28;20060;-46
2022/07/08 08:23:43;;;;;;;3.08;0.70;;;23.50;51.40;;;;;;6202864;28;20080;-46
2022/07/08 08:26:50;;;;;;;4.28;0.80;;;23.50;51.10;;;;;;6194078;28;20182;-43
2022/07/08 08:29:52;;;;;;;3.72;0.68;;;23.60;50.60;;;;;;6182579;28;20044;-44
2022/07/08 08:32:54;;;;;;;1.52;0.60;;;23.40;50.20;;;;;;6163270;28;20044;-44
2022/07/08 08:36:02;;;;;;;0.85;0.43;;;23.50;50.10;;;;;;6188661;28;20066;-43
2022/07/08 08:39:04;;;;;;;1.13;0.50;;;23.70;50.00;;;;;;6157657;28;21950;-45
2022/07/08 08:42:07;;;;;;;2.13;0.60;;;23.70;49.90;;;;;;6152606;28;21232;-43
2022/07/08 08:45:10;;;;;;;1.70;0.50;;;23.70;49.70;;;;;;6173119;28;20081;-43
2022/07/08 08:48:13;;;;;;;2.75;0.80;;;23.60;49.60;;;;;;6198061;28;20047;-44
2022/07/08 08:51:20;;;;;;;1.55;0.80;;;23.90;50.40;;;;;;6191111;28;20133;-44
2022/07/08 08:54:23;;;;;;;3.30;0.65;;;23.90;49.60;;;;;;6190745;28;20194;-44
2022/07/08 08:57:25;;;;;;;2.53;0.70;;;23.80;49.50;;;;;;6182723;28;20043;-44
2022/07/08 09:00:32;;;;;;;3.30;1.02;;;23.70;49.40;;;;;;6163994;28;20052;-46
2022/07/08 09:03:35;;;;;;;1.52;0.73;;;23.70;49.40;;;;;;6154692;28;21250;-44
2022/07/08 09:06:37;;;;;;;2.92;0.70;;;23.70;49.50;;;;;;6168515;28;20171;-44
2022/07/08 09:09:39;;;;;;;2.00;0.70;;;23.20;49.20;;;;;;6186362;28;20238;-47
2022/07/08 09:13:00;;;;;;;2.72;0.68;;;23.70;49.40;;;;;;6174683;28;20121;-44
2022/07/08 09:16:01;;;;;;;1.42;0.32;;;23.80;49.40;;;;;;6183477;28;21235;-45
2022/07/08 09:19:13;;;;;;;2.75;0.80;;;23.90;49.90;;;;;;6170083;28;21811;-46
2022/07/08 09:22:15;;;;;;;2.92;0.93;;;23.80;49.20;;;;;;6163064;28;20055;-45
2022/07/08 09:25:16;;;;;;;2.25;0.77;;;23.90;49.20;;;;;;6188398;28;20054;-46
2022/07/08 09:28:30;;;;;;;2.33;0.70;;;24.00;49.20;;;;;;6176550;28;20182;-42
2022/07/08 09:31:35;;;;;;;1.08;0.57;;;24.00;49.10;;;;;;6129865;28;20158;-45
2022/07/08 09:34:37;;;;;;;1.67;0.60;;;24.00;49.10;;;;;;6173961;28;20052;-44
2022/07/08 09:37:42;;;;;;;1.40;0.82;;;24.00;49.00;;;;;;6188323;28;20129;-47
2022/07/08 09:40:54;;;;;;;0.50;0.50;;;24.00;48.90;;;;;;6179603;28;20048;-45
2022/07/08 09:43:56;;;;;;;0.80;0.50;;;24.20;49.00;;;;;;6196924;28;20072;-48
2022/07/08 09:46:58;;;;;;;1.25;0.40;;;24.20;49.00;;;;;;6195162;28;20238;-43
2022/07/08 09:50:01;;;;;;;1.02;0.60;;;24.20;48.90;;;;;;6167132;28;20055;-49
2022/07/08 09:53:12;;;;;;;0.35;0.32;;;24.10;48.90;;;;;;6197570;28;20047;-46
2022/07/08 09:56:13;;;;;;;1.13;0.40;;;24.20;48.90;;;;;;6174882;28;20063;-44
2022/07/08 09:59:18;;;;;;;0.50;0.40;;;24.30;48.90;;;;;;6164784;28;20051;-46
2022/07/08 10:02:24;;;;;;;0.38;0.28;;;24.30;48.80;;;;;;6174977;28;20048;-44
2022/07/08 10:05:27;;;;;;;1.50;0.47;;;24.30;48.70;;;;;;6184051;28;20118;-45
2022/07/08 10:08:28;;;;;;;0.63;0.40;;;24.30;48.60;;;;;;6194587;28;22439;-43
2022/07/08 10:11:31;;;;;;;0.35;0.30;;;24.50;48.60;;;;;;6183934;28;20090;-42
2022/07/08 10:14:35;;;;;;;0.32;0.28;;;24.40;48.60;;;;;;6194147;28;20044;-44
2022/07/08 10:17:43;;;;;;;0.40;0.30;;;24.40;48.40;;;;;;6195328;28;20076;-46
2022/07/08 10:20:48;;;;;;;0.30;0.30;;;24.40;48.40;;;;;;6188942;28;20050;-44
2022/07/08 10:23:51;;;;;;;0.35;0.15;;;24.40;48.30;;;;;;6192036;28;20076;-45
2022/07/08 10:26:57;;;;;;;0.25;0.15;;;24.40;48.30;;;;;;6169932;28;20167;-45
2022/07/08 10:30:13;;;;;;;0.50;0.20;;;24.40;48.30;;;;;;6198735;28;20044;-43
2022/07/08 10:33:23;;;;;;;0.28;0.20;;;24.40;48.20;;;;;;6184034;28;21874;-43
2022/07/08 10:36:25;;;;;;;0.82;0.22;;;24.40;48.30;;;;;;6179915;28;20050;-43
2022/07/08 10:39:28;;;;;;;0.32;0.20;;;24.50;48.20;;;;;;6214051;28;20175;-48
2022/07/08 10:42:30;;;;;;;0.32;0.30;;;24.50;48.20;;;;;;6213739;28;21214;-48
2022/07/08 10:45:59;;;;;;;0.20;0.20;;;24.50;48.20;;;;;;6228678;28;20059;-44
2022/07/08 10:49:02;;;;;;;0.30;0.20;;;24.40;48.00;;;;;;6224143;28;20940;-43
2022/07/08 10:52:04;;;;;;;0.20;0.20;;;24.40;48.00;;;;;;6207625;28;20055;-47
2022/07/08 10:55:11;;;;;;;0.40;0.25;;;24.50;48.10;;;;;;6234151;28;20090;-43
2022/07/08 10:58:13;;;;;;;0.85;0.30;;;24.60;48.20;;;;;;6234557;28;20824;-47
2022/07/08 11:01:26;;;;;;;0.30;0.30;;;24.60;48.10;;;;;;6240743;28;20170;-46
2022/07/08 11:04:44;;;;;;;0.20;0.17;;;24.40;48.00;;;;;;6210998;28;20039;-49
2022/07/08 11:07:46;;;;;;;0.47;0.25;;;24.60;48.10;;;;;;6197168;28;20047;-47
2022/07/08 11:10:49;;;;;;;0.80;0.20;;;24.50;48.10;;;;;;6227980;28;20071;-46
2022/07/08 11:13:55;;;;;;;0.50;0.40;;;24.50;48.00;;;;;;6234906;28;20125;-50
2022/07/08 11:16:57;;;;;;;1.15;0.20;;;24.60;48.00;;;;;;6236756;28;20039;-44
2022/07/08 11:20:01;;;;;;;0.40;0.28;;;24.50;47.90;;;;;;6240376;28;20154;-46
2022/07/08 11:23:05;;;;;;;0.55;0.30;;;24.60;48.10;;;;;;6194139;28;20075;-45
2022/07/08 11:26:07;;;;;;;0.30;0.10;;;24.60;48.00;;;;;;6214595;28;20052;-44
2022/07/08 11:29:15;;;;;;;0.35;0.30;;;24.60;48.00;;;;;;6221899;28;20213;-44
2022/07/08 11:32:19;;;;;;;0.40;0.20;;;24.50;47.80;;;;;;6212737;28;21306;-45
2022/07/08 11:35:22;;;;;;;0.40;0.20;;;24.60;47.80;;;;;;6204695;28;20218;-46
2022/07/08 11:38:37;;;;;;;1.17;0.20;;;24.60;47.80;;;;;;6201924;28;20032;-44
2022/07/08 11:41:40;;;;;;;0.25;0.20;;;24.60;47.70;;;;;;6217644;28;20049;-45
2022/07/08 11:44:42;;;;;;;0.70;0.20;;;24.60;47.70;;;;;;6212127;28;20055;-44
2022/07/08 11:47:44;;;;;;;0.50;0.30;;;24.70;47.90;;;;;;6180082;28;20039;-54
2022/07/08 11:50:52;;;;;;;1.75;0.30;;;24.80;48.00;;;;;;6177078;28;20081;-44
2022/07/08 11:53:54;;;;;;;1.48;0.40;;;24.60;48.00;;;;;;6183912;28;20044;-44
2022/07/08 11:56:57;;;;;;;1.70;0.20;;;24.60;48.10;;;;;;6214405;28;22055;-44
2022/07/08 11:59:58;;;;;;;0.20;0.20;;;24.70;48.20;;;;;;6185817;28;20091;-43
2022/07/08 12:03:00;;;;;;;0.47;0.20;;;24.70;48.30;;;;;;6170987;28;20043;-43
2022/07/08 12:06:03;;;;;;;1.02;0.20;;;24.70;48.40;;;;;;6178758;28;20052;-42
2022/07/08 12:09:09;;;;;;;0.52;0.30;;;24.60;48.30;;;;;;6179173;28;20162;-44
2022/07/08 12:12:10;;;;;;;0.20;0.10;;;24.70;48.40;;;;;;6152788;28;20083;-45
2022/07/08 12:15:14;;;;;;;0.60;0.30;;;24.70;48.30;;;;;;6201906;28;20058;-44
2022/07/08 12:18:24;;;;;;;0.85;0.40;;;24.50;48.20;;;;;;6197246;28;20051;-45
2022/07/08 12:21:26;;;;;;;1.83;0.55;;;24.80;48.40;;;;;;6200065;28;20129;-46
2022/07/08 12:24:34;;;;;;;1.23;0.43;;;24.80;48.40;;;;;;6184508;28;20161;-41
2022/07/08 12:27:35;;;;;;;0.95;0.40;;;24.80;48.40;;;;;;6207823;28;21180;-49
2022/07/08 12:30:38;;;;;;;1.00;0.60;;;24.90;48.20;;;;;;6184484;28;20047;-45
2022/07/08 12:33:40;;;;;;;1.05;0.40;;;24.90;48.10;;;;;;6202025;28;20044;-46
2022/07/08 12:36:42;;;;;;;0.93;0.40;;;24.80;48.00;;;;;;6184987;28;20690;-42
2022/07/08 12:39:44;;;;;;;1.60;0.50;;;24.60;48.00;;;;;;6186238;28;21446;-42
2022/07/08 12:43:05;;;;;;;1.83;0.50;;;24.80;48.20;;;;;;6200839;28;22342;-43
2022/07/08 12:46:07;;;;;;;0.90;0.30;;;24.80;48.00;;;;;;6207645;28;20128;-42
2022/07/08 12:49:08;;;;;;;0.60;0.40;;;24.80;48.10;;;;;;6183191;28;20048;-43
2022/07/08 12:52:11;;;;;;;1.85;0.52;;;24.80;48.10;;;;;;6197114;28;20051;-54
2022/07/08 12:55:13;;;;;;;0.55;0.40;;;24.90;47.90;;;;;;6166190;28;20513;-44
2022/07/08 12:58:14;;;;;;;1.90;0.40;;;24.80;48.00;;;;;;6178301;28;20955;-43
2022/07/08 13:01:16;;;;;;;0.77;0.40;;;24.80;48.00;;;;;;6179173;28;20048;-43
2022/07/08 13:04:18;;;;;;;0.50;0.38;;;24.90;47.90;;;;;;6208579;28;20095;-42
2022/07/08 13:07:20;;;;;;;0.65;0.40;;;24.90;47.90;;;;;;6193050;28;20180;-43
2022/07/08 13:10:22;;;;;;;1.02;0.40;;;24.90;48.00;;;;;;6202145;28;20067;-41
2022/07/08 13:13:24;;;;;;;0.80;0.40;;;24.90;48.00;;;;;;6209795;28;20261;-42
2022/07/08 13:16:26;;;;;;;1.52;0.40;;;24.90;48.00;;;;;;6182226;28;20052;-46
2022/07/08 13:19:27;;;;;;;0.85;0.57;;;24.90;47.90;;;;;;6195908;28;20055;-45
2022/07/08 13:22:29;;;;;;;1.08;0.40;;;24.90;47.80;;;;;;6202287;28;20300;-43
2022/07/08 13:25:31;;;;;;;0.70;0.50;;;24.90;47.80;;;;;;6189975;28;20054;-45
2022/07/08 13:28:33;;;;;;;0.80;0.57;;;24.90;47.80;;;;;;6197107;28;20055;-42
2022/07/08 13:31:35;;;;;;;2.95;0.57;;;24.90;47.70;;;;;;6166796;28;20822;-42
2022/07/08 13:34:37;;;;;;;1.05;0.50;;;24.90;47.70;;;;;;6176601;28;20151;-46
2022/07/08 13:37:58;;;;;;;1.80;0.40;;;24.90;47.80;;;;;;6188358;28;20062;-42
2022/07/08 13:41:00;;;;;;;0.70;0.57;;;24.80;47.60;;;;;;6175027;28;20050;-43
2022/07/08 13:44:02;;;;;;;0.70;0.40;;;24.90;47.80;;;;;;6181055;28;20040;-47
2022/07/08 13:47:04;;;;;;;0.65;0.30;;;24.90;47.80;;;;;;6173013;28;20159;-43
2022/07/08 13:50:06;;;;;;;1.15;0.40;;;24.90;47.80;;;;;;6163574;28;20206;-42
2022/07/08 13:53:07;;;;;;;0.52;0.40;;;24.90;48.00;;;;;;6168544;28;20067;-43
2022/07/08 13:56:10;;;;;;;1.60;0.30;;;24.90;48.00;;;;;;6174297;28;20234;-43
2022/07/08 13:59:11;;;;;;;0.90;0.60;;;24.90;48.30;;;;;;6163833;28;20211;-43
2022/07/08 14:02:13;;;;;;;0.55;0.55;;;24.90;48.60;;;;;;6161011;28;20054;-44
2022/07/08 14:05:15;;;;;;;0.93;0.52;;;24.90;48.90;;;;;;6162226;28;20102;-44
2022/07/08 14:08:17;;;;;;;1.95;0.70;;;24.90;49.00;;;;;;6160393;28;20044;-48
2022/07/08 14:11:39;;;;;;;;;;;24.90;49.20;;;;;;6147607;28;20090;-46
2022/07/08 14:14:40;;;;;;;1.20;0.43;;;24.90;49.10;;;;;;6180481;28;19963;-43
2022/07/08 14:17:42;;;;;;;0.75;0.50;;;25.00;49.10;;;;;;6171187;28;20050;-45
2022/07/08 14:20:44;;;;;;;0.50;0.47;;;24.90;49.20;;;;;;6157601;28;20052;-43
2022/07/08 14:23:46;;;;;;;1.17;0.52;;;25.00;49.30;;;;;;6167128;28;20047;-43
2022/07/08 14:26:49;;;;;;;1.08;0.50;;;25.00;49.40;;;;;;6166443;28;20055;-45
2022/07/08 14:29:52;;;;;;;0.57;0.47;;;25.00;49.60;;;;;;6192069;28;20939;-43
2022/07/08 14:32:54;;;;;;;1.35;0.38;;;25.00;49.60;;;;;;6181445;28;20040;-43
2022/07/08 14:35:59;;;;;;;1.75;0.50;;;25.00;49.80;;;;;;6186846;28;21038;-51
2022/07/08 14:39:01;;;;;;;0.95;0.50;;;25.00;50.00;;;;;;6167639;28;20066;-45
2022/07/08 14:42:05;;;;;;;3.25;0.70;;;25.00;49.90;;;;;;6179706;28;20039;-43
2022/07/08 14:45:07;;;;;;;1.45;0.80;;;25.10;50.00;;;;;;6177781;28;20075;-43
2022/07/08 14:48:08;;;;;;;1.13;0.60;;;25.10;50.10;;;;;;6175842;28;20053;-45
2022/07/08 14:51:18;;;;;;;0.82;0.50;;;25.10;50.10;;;;;;6127675;28;20054;-46
2022/07/08 14:54:19;;;;;;;1.13;0.70;;;25.10;50.20;;;;;;6104374;28;20133;-47
2022/07/08 14:57:21;;;;;;;0.57;0.40;;;25.10;50.30;;;;;;6139664;28;20312;-46
2022/07/08 15:00:23;;;;;;;0.80;0.50;;;25.10;50.30;;;;;;6139740;28;20424;-44
2022/07/08 15:03:25;;;;;;;0.73;0.43;;;25.10;50.30;;;;;;6116200;28;20532;-44
2022/07/08 15:06:27;;;;;;;1.48;0.60;;;25.10;50.30;;;;;;6106265;28;20060;-46
2022/07/08 15:09:29;;;;;;;0.73;0.55;;;25.10;50.30;;;;;;6112298;28;20912;-44
2022/07/08 15:12:31;;;;;;;0.98;0.50;;;25.10;50.30;;;;;;6136025;28;20050;-43
2022/07/08 15:15:32;;;;;;;0.50;0.40;;;25.20;50.50;;;;;;6119081;28;20368;-45
2022/07/08 15:18:41;;;;;;;1.00;0.60;;;25.20;50.50;;;;;;6113469;28;20715;-46
2022/07/08 15:21:43;;;;;;;0.93;0.50;;;25.10;50.40;;;;;;6184005;28;20343;-42
2022/07/08 15:24:44;;;;;;;0.50;0.43;;;25.10;50.40;;;;;;6173177;28;20055;-44
2022/07/08 15:27:53;;;;;;;1.10;0.60;;;25.10;50.40;;;;;;6167607;28;20157;-42
2022/07/08 15:30:55;;;;;;;0.40;0.40;;;25.20;50.50;;;;;;6159743;28;20205;-43
2022/07/08 15:34:02;;;;;;;1.15;0.50;;;25.20;50.40;;;;;;6163455;28;20428;-44
2022/07/08 15:37:04;;;;;;;0.70;0.60;;;25.30;50.60;;;;;;6177988;28;20329;-44
2022/07/08 15:40:07;;;;;;;0.47;0.40;;;25.10;50.50;;;;;;6179880;28;22625;-45
2022/07/08 15:43:09;;;;;;;0.85;0.50;;;25.10;50.50;;;;;;6161487;28;21374;-42
2022/07/08 15:46:11;;;;;;;1.00;0.57;;;25.20;50.60;;;;;;6186949;28;20231;-45
2022/07/08 15:49:12;;;;;;;0.75;0.50;;;25.20;50.70;;;;;;6191381;28;20167;-42
2022/07/08 15:52:14;;;;;;;1.88;0.50;;;25.10;50.60;;;;;;6185915;28;20868;-42
2022/07/08 15:55:16;;;;;;;1.38;0.70;;;25.20;50.60;;;;;;6177237;28;21971;-45
2022/07/08 15:58:18;;;;;;;0.68;0.30;;;25.20;50.80;;;;;;6194176;28;20658;-42
2022/07/08 16:01:20;;;;;;;1.05;0.50;;;25.20;50.80;;;;;;6196910;28;20166;-44
2022/07/08 16:04:21;;;;;;;0.63;0.40;;;25.20;50.70;;;;;;6216068;28;20099;-42
2022/07/08 16:07:24;;;;;;;1.27;0.40;;;25.30;50.90;;;;;;6228117;28;20825;-47
2022/07/08 16:10:25;;;;;;;0.60;0.40;;;25.30;50.90;;;;;;6232030;28;20159;-43
2022/07/08 16:13:29;;;;;;;0.30;0.30;;;25.30;50.90;;;;;;6214016;28;20105;-43
2022/07/08 16:16:31;;;;;;;0.30;0.30;;;25.30;51.00;;;;;;6223164;28;20052;-43